createdAt,value
2023-05-07T00:01:36.133Z,1.63
2023-05-07T00:04:24.684Z,1.57
2023-05-07T00:07:13.047Z,1.67
2023-05-07T00:10:01.377Z,1.63
2023-05-07T00:12:49.734Z,1.67
2023-05-07T00:15:38.122Z,1.60
2023-05-07T00:18:27.813Z,1.30
2023-05-07T00:21:16.265Z,1.93
2023-05-07T00:24:04.870Z,1.67
2023-05-07T00:26:53.790Z,1.60
2023-05-07T00:29:42.136Z,1.50
2023-05-07T00:32:30.504Z,1.70
2023-05-07T00:35:20.222Z,1.73
2023-05-07T00:38:08.594Z,1.53
2023-05-07T00:40:57.037Z,1.57
2023-05-07T00:43:45.965Z,1.60
2023-05-07T00:46:35.171Z,1.80
2023-05-07T00:49:23.813Z,1.50
2023-05-07T00:52:16.443Z,1.90
2023-05-07T00:55:07.929Z,1.90
2023-05-07T00:57:56.331Z,1.60
2023-05-07T01:00:44.818Z,1.77
2023-05-07T01:03:33.152Z,1.73
2023-05-07T01:06:22.772Z,1.70
2023-05-07T01:09:12.701Z,1.60
2023-05-07T01:12:01.307Z,1.60
2023-05-07T01:14:50.824Z,1.50
2023-05-07T01:17:41.529Z,1.40
2023-05-07T01:20:35.202Z,1.60
2023-05-07T01:23:25.653Z,1.63
2023-05-07T01:26:14.031Z,1.77
2023-05-07T01:29:04.303Z,1.60
2023-05-07T01:31:53.900Z,1.67
2023-05-07T01:34:42.623Z,1.50
2023-05-07T01:37:31.329Z,1.83
2023-05-07T01:40:21.426Z,1.57
2023-05-07T01:43:10.575Z,1.80
2023-05-07T01:46:00.169Z,2.10
2023-05-07T01:48:49.257Z,1.70
2023-05-07T01:51:37.911Z,1.60
2023-05-07T01:54:28.872Z,1.57
2023-05-07T01:57:19.673Z,1.80
2023-05-07T02:00:10.255Z,1.73
2023-05-07T02:03:06.644Z,1.83
2023-05-07T02:06:02.924Z,1.60
2023-05-07T02:08:57.198Z,1.80
2023-05-07T02:11:45.617Z,1.60
2023-05-07T02:14:35.948Z,1.70
2023-05-07T02:17:24.397Z,1.70
2023-05-07T02:20:14.500Z,2.10
2023-05-07T02:23:03.973Z,1.70
2023-05-07T02:25:53.145Z,1.70
2023-05-07T02:28:41.509Z,1.70
2023-05-07T02:31:31.334Z,1.80
2023-05-07T02:34:20.107Z,1.60
2023-05-07T02:37:08.489Z,1.60
2023-05-07T02:39:57.117Z,1.70
2023-05-07T02:42:45.498Z,1.73
2023-05-07T02:45:34.450Z,1.43
2023-05-07T02:48:25.452Z,1.93
2023-05-07T02:51:13.840Z,1.80
2023-05-07T02:54:04.216Z,1.40
2023-05-07T02:56:54.018Z,1.73
2023-05-07T02:59:42.356Z,1.60
2023-05-07T03:02:30.851Z,1.67
2023-05-07T03:05:20.640Z,1.50
2023-05-07T03:08:09.057Z,2.17
2023-05-07T03:10:57.446Z,1.80
2023-05-07T03:13:46.200Z,1.60
2023-05-07T03:16:34.608Z,1.77
2023-05-07T03:19:22.958Z,1.80
2023-05-07T03:22:12.622Z,1.60
2023-05-07T03:25:01.005Z,1.50
2023-05-07T03:27:49.292Z,2.00
2023-05-07T03:30:41.071Z,1.53
2023-05-07T03:33:29.432Z,1.40
2023-05-07T03:36:18.921Z,1.67
2023-05-07T03:39:08.928Z,2.03
2023-05-07T03:42:01.811Z,2.10
2023-05-07T03:44:51.394Z,1.70
2023-05-07T03:47:40.207Z,1.90
2023-05-07T03:50:30.747Z,1.70
2023-05-07T03:53:19.293Z,1.60
2023-05-07T03:56:09.687Z,1.60
2023-05-07T03:59:00.994Z,1.60
2023-05-07T04:01:49.741Z,1.97
2023-05-07T04:04:40.347Z,1.70
2023-05-07T04:07:29.775Z,1.80
2023-05-07T04:10:18.650Z,1.93
2023-05-07T04:13:11.023Z,2.00
2023-05-07T04:16:01.045Z,1.70
2023-05-07T04:18:50.504Z,1.60
2023-05-07T04:21:39.269Z,1.73
2023-05-07T04:24:27.735Z,1.77
2023-05-07T04:27:16.774Z,1.60
2023-05-07T04:30:08.072Z,1.60
2023-05-07T04:33:00.275Z,2.10
2023-05-07T04:35:51.452Z,1.70
2023-05-07T04:38:40.085Z,1.70
2023-05-07T04:41:28.712Z,1.70
2023-05-07T04:44:17.835Z,1.63
2023-05-07T04:47:08.692Z,1.70
2023-05-07T04:49:57.294Z,1.70
2023-05-07T04:52:46.293Z,1.87
2023-05-07T04:55:35.455Z,1.77
2023-05-07T04:58:24.300Z,1.80
2023-05-07T05:01:12.789Z,1.77
2023-05-07T05:04:03.609Z,1.50
2023-05-07T05:06:52.218Z,1.60
2023-05-07T05:09:40.624Z,1.80
2023-05-07T05:12:29.689Z,1.70
2023-05-07T05:15:18.405Z,1.93
2023-05-07T05:18:06.994Z,1.83
2023-05-07T05:20:56.971Z,1.70
2023-05-07T05:23:45.898Z,1.97
2023-05-07T05:26:35.461Z,1.60
2023-05-07T05:29:24.724Z,1.60
2023-05-07T05:32:13.082Z,1.90
2023-05-07T05:35:02.076Z,1.80
2023-05-07T05:37:52.761Z,1.47
2023-05-07T05:40:41.502Z,1.60
2023-05-07T05:43:30.075Z,1.77
2023-05-07T05:46:18.680Z,2.20
2023-05-07T05:49:07.157Z,2.13
2023-05-07T05:51:56.848Z,1.80
2023-05-07T05:54:48.321Z,1.87
2023-05-07T05:57:36.991Z,1.83
2023-05-07T06:00:25.667Z,1.80
2023-05-07T06:03:21.778Z,1.73
2023-05-07T06:06:10.393Z,1.90
2023-05-07T06:08:58.795Z,1.50
2023-05-07T06:11:55.616Z,1.90
2023-05-07T06:14:45.106Z,1.70
2023-05-07T06:17:34.113Z,1.93
2023-05-07T06:20:22.558Z,2.07
2023-05-07T06:23:12.165Z,1.80
2023-05-07T06:26:00.573Z,1.80
2023-05-07T06:28:55.782Z,1.70
2023-05-07T06:31:45.322Z,2.10
2023-05-07T06:34:33.748Z,2.03
2023-05-07T06:37:22.134Z,1.63
2023-05-07T06:40:20.806Z,1.70
2023-05-07T06:43:11.006Z,1.60
2023-05-07T06:46:18.566Z,2.07
2023-05-07T06:49:07.168Z,1.80
2023-05-07T06:51:56.543Z,2.17
2023-05-07T06:54:45.318Z,1.80
2023-05-07T06:57:37.322Z,2.00
2023-05-07T07:00:26.101Z,2.10
2023-05-07T07:03:18.789Z,1.70
2023-05-07T07:06:08.278Z,2.00
2023-05-07T07:08:56.790Z,1.70
2023-05-07T07:11:45.272Z,1.90
2023-05-07T07:14:33.742Z,2.10
2023-05-07T07:17:22.144Z,1.97
2023-05-07T07:20:13.203Z,2.03
2023-05-07T07:23:02.886Z,1.90
2023-05-07T07:25:51.393Z,1.80
2023-05-07T07:28:45.609Z,1.80
2023-05-07T07:31:36.539Z,1.97
2023-05-07T07:34:25.031Z,1.80
2023-05-07T07:37:14.819Z,1.70
2023-05-07T07:40:04.861Z,1.80
2023-05-07T07:42:55.121Z,1.60
2023-05-07T07:45:44.937Z,1.70
2023-05-07T07:48:33.476Z,1.67
2023-05-07T07:51:22.234Z,2.10
2023-05-07T07:54:14.193Z,2.40
2023-05-07T07:57:03.410Z,2.10
2023-05-07T07:59:54.419Z,1.80
2023-05-07T08:02:43.216Z,2.07
2023-05-07T08:05:35.487Z,1.90
2023-05-07T08:08:25.029Z,2.20
2023-05-07T08:11:16.711Z,2.30
2023-05-07T08:14:05.940Z,1.90
2023-05-07T08:16:54.929Z,1.80
2023-05-07T08:19:44.145Z,2.10
2023-05-07T08:22:36.364Z,2.30
2023-05-07T08:25:25.157Z,2.00
2023-05-07T08:28:15.016Z,1.87
2023-05-07T08:31:03.670Z,1.73
2023-05-07T08:33:56.692Z,2.00
2023-05-07T08:36:45.150Z,1.77
2023-05-07T08:39:36.747Z,2.03
2023-05-07T08:42:29.572Z,2.30
2023-05-07T08:45:20.273Z,2.13
2023-05-07T08:48:12.295Z,2.37
2023-05-07T08:51:01.093Z,2.40
2023-05-07T08:53:50.890Z,2.10
2023-05-07T08:56:45.254Z,2.23
2023-05-07T08:59:33.774Z,2.50
2023-05-07T09:02:23.667Z,2.27
2023-05-07T09:05:12.338Z,2.27
2023-05-07T09:08:01.475Z,2.27
2023-05-07T09:10:50.463Z,2.77
2023-05-07T09:13:39.918Z,2.07
2023-05-07T09:16:28.694Z,2.87
2023-05-07T09:19:24.804Z,2.37
2023-05-07T09:22:14.644Z,2.60
2023-05-07T09:25:13.357Z,2.50
2023-05-07T09:28:03.439Z,2.50
2023-05-07T09:30:52.302Z,2.60
2023-05-07T09:33:42.311Z,2.13
2023-05-07T09:36:34.131Z,2.30
2023-05-07T09:39:23.178Z,2.63
2023-05-07T09:42:12.516Z,2.57
2023-05-07T09:45:02.085Z,2.40
2023-05-07T09:47:58.522Z,2.57
2023-05-07T09:50:51.394Z,2.20
2023-05-07T09:53:44.223Z,2.33
2023-05-07T09:56:34.335Z,1.97
2023-05-07T09:59:23.798Z,1.77
2023-05-07T10:02:12.565Z,2.10
2023-05-07T10:05:08.444Z,2.00
2023-05-07T10:07:58.326Z,1.63
2023-05-07T10:10:49.287Z,2.57
2023-05-07T10:13:42.199Z,2.47
2023-05-07T10:16:33.715Z,2.30
2023-05-07T10:19:22.268Z,2.07
2023-05-07T10:22:16.171Z,2.30
2023-05-07T10:25:09.366Z,1.77
2023-05-07T10:28:03.523Z,1.80
2023-05-07T10:31:03.465Z,1.90
2023-05-07T10:33:59.119Z,1.93
2023-05-07T10:36:48.519Z,1.90
2023-05-07T10:39:37.443Z,2.37
2023-05-07T10:42:26.250Z,2.20
2023-05-07T10:45:18.576Z,1.90
2023-05-07T10:48:28.718Z,1.60
2023-05-07T10:51:23.167Z,2.00
2023-05-07T10:54:24.778Z,1.80
2023-05-07T10:57:37.788Z,2.27
2023-05-07T11:00:47.939Z,1.63
2023-05-07T11:04:15.222Z,1.97
2023-05-07T11:07:26.234Z,1.87
2023-05-07T11:10:17.735Z,2.30
2023-05-07T11:13:19.611Z,1.67
2023-05-07T11:16:21.013Z,1.70
2023-05-07T11:19:12.680Z,1.53
2023-05-07T11:22:09.472Z,1.80
2023-05-07T11:25:04.104Z,1.87
2023-05-07T11:27:52.792Z,2.00
2023-05-07T11:30:43.979Z,1.97
2023-05-07T11:33:37.069Z,2.10
2023-05-07T11:36:28.435Z,1.93
2023-05-07T11:39:27.785Z,1.73
2023-05-07T11:42:30.007Z,2.13
2023-05-07T11:45:25.735Z,1.70
2023-05-07T11:48:14.705Z,2.03
2023-05-07T11:51:06.637Z,1.90
2023-05-07T11:53:55.272Z,1.93
2023-05-07T11:56:43.586Z,1.90
2023-05-07T11:59:31.955Z,1.97
2023-05-07T12:02:20.392Z,1.93
2023-05-07T12:05:09.350Z,2.17
2023-05-07T12:08:00.196Z,2.30
2023-05-07T12:10:50.989Z,1.80
2023-05-07T12:13:39.587Z,1.67
2023-05-07T12:16:28.298Z,1.90
2023-05-07T12:19:16.933Z,2.13
2023-05-07T12:22:05.779Z,2.20
2023-05-07T12:25:00.703Z,2.20
2023-05-07T12:27:53.815Z,1.90
2023-05-07T12:30:42.327Z,2.07
2023-05-07T12:33:32.042Z,2.20
2023-05-07T12:36:22.150Z,2.37
2023-05-07T12:39:11.014Z,2.00
2023-05-07T12:42:01.877Z,2.07
2023-05-07T12:44:50.687Z,1.93
2023-05-07T12:47:39.178Z,2.07
2023-05-07T12:50:27.636Z,2.20
2023-05-07T12:53:16.162Z,2.03
2023-05-07T12:56:04.911Z,2.00
2023-05-07T12:58:59.494Z,1.83
2023-05-07T13:01:48.216Z,2.27
2023-05-07T13:04:37.077Z,2.33
2023-05-07T13:07:27.750Z,2.53
2023-05-07T13:10:17.071Z,2.03
2023-05-07T13:13:05.838Z,2.00
2023-05-07T13:15:55.648Z,1.87
2023-05-07T13:18:44.912Z,2.20
2023-05-07T13:21:33.869Z,2.27
2023-05-07T13:24:22.249Z,2.00
2023-05-07T13:27:10.669Z,2.27
2023-05-07T13:29:59.100Z,2.03
2023-05-07T13:32:49.039Z,2.17
2023-05-07T13:35:37.588Z,2.10
2023-05-07T13:38:26.032Z,2.33
2023-05-07T13:41:15.304Z,2.33
2023-05-07T13:44:03.783Z,2.63
2023-05-07T13:46:52.277Z,2.27
2023-05-07T13:49:42.060Z,2.47
2023-05-07T13:52:30.468Z,2.27
2023-05-07T13:55:19.656Z,2.20
2023-05-07T13:58:08.003Z,2.57
2023-05-07T14:00:56.423Z,2.43
2023-05-07T14:03:44.955Z,2.67
2023-05-07T14:06:34.779Z,2.47
2023-05-07T14:09:23.150Z,2.80
2023-05-07T14:12:11.584Z,2.23
2023-05-07T14:15:00.135Z,2.77
2023-05-07T14:17:48.921Z,2.90
2023-05-07T14:20:38.699Z,2.60
2023-05-07T14:23:28.809Z,2.63
2023-05-07T14:26:17.228Z,2.37
2023-05-07T14:29:05.672Z,3.50
2023-05-07T14:31:54.037Z,2.83
2023-05-07T14:34:42.438Z,2.40
2023-05-07T14:37:30.842Z,2.80
2023-05-07T14:40:20.601Z,2.70
2023-05-07T14:43:09.034Z,2.80
2023-05-07T14:45:57.448Z,2.90
2023-05-07T14:48:47.014Z,2.53
2023-05-07T14:51:35.414Z,2.40
2023-05-07T14:54:23.833Z,2.40
2023-05-07T14:57:15.752Z,2.70
2023-05-07T15:00:06.045Z,2.60
2023-05-07T15:02:54.563Z,3.07
2023-05-07T15:05:43.550Z,2.80
2023-05-07T15:08:31.898Z,2.87
2023-05-07T15:11:20.288Z,2.40
2023-05-07T15:14:10.177Z,2.60
2023-05-07T15:16:58.507Z,2.43
2023-05-07T15:19:46.881Z,2.77
2023-05-07T15:22:37.066Z,2.67
2023-05-07T15:25:25.507Z,2.63
2023-05-07T15:28:13.908Z,2.67
2023-05-07T15:31:03.631Z,2.80
2023-05-07T15:33:52.926Z,2.40
2023-05-07T15:36:41.348Z,2.30
2023-05-07T15:39:29.778Z,2.90
2023-05-07T15:42:18.201Z,2.47
2023-05-07T15:45:07.921Z,2.80
2023-05-07T15:47:57.739Z,2.10
2023-05-07T15:50:46.670Z,2.90
2023-05-07T15:53:35.755Z,2.10
2023-05-07T15:56:25.299Z,2.20
2023-05-07T15:59:15.473Z,2.20
2023-05-07T16:02:03.936Z,2.20
2023-05-07T16:04:53.696Z,2.27
2023-05-07T16:07:44.173Z,2.10
2023-05-07T16:10:32.611Z,2.20
2023-05-07T16:13:21.178Z,2.20
2023-05-07T16:16:09.814Z,2.23
2023-05-07T16:18:58.290Z,1.90
2023-05-07T16:21:48.284Z,2.30
2023-05-07T16:24:36.729Z,2.00
2023-05-07T16:27:25.221Z,2.03
2023-05-07T16:30:14.299Z,2.00
2023-05-07T16:33:02.783Z,2.17
2023-05-07T16:35:54.528Z,1.63
2023-05-07T16:38:44.400Z,1.70
2023-05-07T16:41:32.843Z,1.77
2023-05-07T16:44:21.382Z,2.20
2023-05-07T16:47:09.804Z,1.87
2023-05-07T16:49:58.980Z,2.03
2023-05-07T16:52:47.438Z,1.93
2023-05-07T16:55:39.437Z,2.00
2023-05-07T16:58:28.339Z,2.23
2023-05-07T17:01:18.943Z,1.97
2023-05-07T17:04:07.426Z,2.33
2023-05-07T17:06:57.813Z,2.00
2023-05-07T17:09:46.241Z,2.27
2023-05-07T17:12:37.685Z,1.70
2023-05-07T17:15:26.369Z,1.87
2023-05-07T17:18:15.373Z,1.83
2023-05-07T17:21:03.900Z,2.00
2023-05-07T17:23:52.254Z,1.97
2023-05-07T17:26:43.118Z,2.07
2023-05-07T17:29:34.080Z,2.10
2023-05-07T17:32:22.570Z,2.30
2023-05-07T17:35:11.240Z,1.90
2023-05-07T17:37:59.678Z,1.63
2023-05-07T17:40:48.526Z,1.90
2023-05-07T17:43:36.928Z,2.10
2023-05-07T17:46:26.806Z,2.00
2023-05-07T17:49:16.544Z,1.73
2023-05-07T17:52:05.204Z,1.80
2023-05-07T17:54:53.565Z,1.70
2023-05-07T17:57:41.931Z,1.90
2023-05-07T18:00:30.490Z,2.00
2023-05-07T18:03:20.527Z,2.13
2023-05-07T18:06:10.200Z,2.00
2023-05-07T18:08:58.802Z,1.80
2023-05-07T18:11:47.199Z,1.80
2023-05-07T18:14:35.700Z,1.87
2023-05-07T18:17:26.408Z,1.93
2023-05-07T18:20:16.481Z,1.80
2023-05-07T18:23:05.030Z,2.00
2023-05-07T18:25:53.586Z,1.97
2023-05-07T18:28:42.147Z,1.60
2023-05-07T18:31:30.566Z,1.90
2023-05-07T18:34:19.054Z,1.90
2023-05-07T18:37:08.799Z,1.83
2023-05-07T18:39:57.125Z,1.70
2023-05-07T18:42:45.588Z,1.87
2023-05-07T18:45:34.813Z,2.43
2023-05-07T18:48:23.210Z,1.73
2023-05-07T18:51:12.760Z,1.80
2023-05-07T18:54:03.325Z,2.20
2023-05-07T18:56:52.030Z,1.90
2023-05-07T18:59:40.475Z,2.10
2023-05-07T19:02:28.846Z,1.90
2023-05-07T19:05:18.446Z,2.33
2023-05-07T19:08:07.196Z,1.70
2023-05-07T19:10:57.715Z,2.20
2023-05-07T19:13:46.121Z,1.90
2023-05-07T19:16:34.534Z,1.97
2023-05-07T19:19:22.963Z,2.07
2023-05-07T19:22:11.479Z,1.90
2023-05-07T19:24:59.888Z,1.60
2023-05-07T19:27:50.945Z,2.03
2023-05-07T19:30:40.780Z,2.30
2023-05-07T19:33:29.899Z,1.83
2023-05-07T19:36:18.396Z,1.83
2023-05-07T19:39:06.783Z,1.97
2023-05-07T19:41:55.189Z,2.00
2023-05-07T19:44:44.946Z,2.13
2023-05-07T19:47:33.624Z,2.00
2023-05-07T19:50:22.285Z,2.17
2023-05-07T19:53:10.882Z,1.90
2023-05-07T19:56:04.513Z,1.80
2023-05-07T19:58:53.079Z,2.20
2023-05-07T20:01:42.906Z,2.40
2023-05-07T20:04:33.566Z,1.70
2023-05-07T20:07:21.893Z,1.80
2023-05-07T20:10:11.048Z,2.47
2023-05-07T20:12:59.671Z,2.30
2023-05-07T20:15:48.502Z,2.00
2023-05-07T20:18:38.222Z,2.57
2023-05-07T20:21:26.869Z,2.23
2023-05-07T20:24:15.279Z,2.33
2023-05-07T20:27:04.923Z,2.10
2023-05-07T20:29:53.599Z,2.10
2023-05-07T20:32:42.121Z,2.13
2023-05-07T20:35:32.232Z,2.03
2023-05-07T20:38:20.934Z,2.20
2023-05-07T20:41:10.634Z,2.27
2023-05-07T20:44:00.411Z,2.20
2023-05-07T20:46:48.825Z,2.40
2023-05-07T20:49:37.220Z,2.03
2023-05-07T20:52:27.004Z,2.30
2023-05-07T20:55:15.594Z,1.97
2023-05-07T20:58:03.940Z,2.20
2023-05-07T21:00:52.783Z,2.37
2023-05-07T21:03:41.399Z,2.10
2023-05-07T21:06:30.081Z,2.70
2023-05-07T21:09:19.905Z,2.50
2023-05-07T21:12:08.395Z,2.13
2023-05-07T21:14:58.053Z,2.50
2023-05-07T21:17:46.514Z,2.23
2023-05-07T21:20:35.037Z,2.40
2023-05-07T21:23:23.402Z,2.20
2023-05-07T21:26:18.914Z,2.13
2023-05-07T21:29:08.824Z,1.90
2023-05-07T21:31:57.284Z,2.40
2023-05-07T21:34:46.657Z,1.87
2023-05-07T21:37:35.011Z,2.00
2023-05-07T21:40:23.373Z,2.33
2023-05-07T21:43:13.102Z,1.83
2023-05-07T21:46:03.749Z,1.93
2023-05-07T21:48:52.121Z,2.33
2023-05-07T21:51:40.662Z,2.40
2023-05-07T21:54:29.047Z,2.03
2023-05-07T21:57:17.567Z,2.40
2023-05-07T22:00:09.219Z,2.60
2023-05-07T22:02:58.476Z,2.70
2023-05-07T22:05:48.083Z,2.00
2023-05-07T22:08:38.108Z,2.20
2023-05-07T22:11:26.659Z,2.10
2023-05-07T22:14:15.032Z,2.13
2023-05-07T22:17:04.774Z,2.30
2023-05-07T22:19:53.267Z,2.00
2023-05-07T22:22:51.232Z,2.30
2023-05-07T22:25:40.517Z,1.97
2023-05-07T22:28:28.907Z,2.00
2023-05-07T22:31:17.319Z,2.03
2023-05-07T22:34:07.098Z,2.30
2023-05-07T22:36:55.448Z,2.57
2023-05-07T22:39:43.876Z,1.93
2023-05-07T22:42:32.255Z,2.40
2023-05-07T22:45:21.146Z,2.20
2023-05-07T22:48:09.952Z,1.80
2023-05-07T22:50:59.742Z,2.20
2023-05-07T22:53:48.137Z,2.63
2023-05-07T22:56:36.538Z,2.30
2023-05-07T22:59:25.000Z,1.87
2023-05-07T23:02:13.487Z,2.07
2023-05-07T23:05:02.184Z,2.37
2023-05-07T23:07:52.179Z,2.30
2023-05-07T23:10:40.589Z,2.30
2023-05-07T23:13:28.974Z,1.97
2023-05-07T23:16:17.340Z,1.73
2023-05-07T23:19:05.744Z,1.90
2023-05-07T23:21:54.096Z,2.80
2023-05-07T23:24:44.089Z,1.97
2023-05-07T23:27:32.474Z,1.83
2023-05-07T23:30:21.094Z,2.10
2023-05-07T23:33:09.586Z,2.03
2023-05-07T23:36:00.993Z,2.03
2023-05-07T23:38:49.338Z,2.47
2023-05-07T23:41:39.043Z,2.10
2023-05-07T23:44:27.408Z,2.23
2023-05-07T23:47:15.897Z,2.00
2023-05-07T23:50:04.409Z,2.00
2023-05-07T23:52:52.739Z,1.80
2023-05-07T23:55:41.177Z,2.70
2023-05-07T23:58:30.937Z,2.10
